• Join FlightAware (Why Join?)
  • Login
  • US Flag 
07:41PM EDT


 

Airport Tracker/Info


-or-


 

Live Flight TrackerFlight Track Log ✈ KAP46 ✈ 08-Aug-2013 ✈ KALB - KMSS

Flight Track Log - Related Links

Times and Time Zones

All times are in EDT time to prevent confusion due to time zone crossing. See the KAP46 flight status page for this flight to view local times or setup timezone preferences in your user account.

Time Position Orientation Groundspeed Altitude Reporting Facility
EDT Latitude Longitude Course Direction KTS MPH feet Rate Location/Type
02:39PM 42.7172 -73.8050 173° South 103 119 1,200  Level Boston Center
02:40PM 42.7067 -73.8358 245° Southwest 121 139 1,800 480 Climbing Boston Center
02:41PM 42.7397 -73.8564 335° Northwest 140 161 2,200 480 Climbing Boston Center
02:42PM 42.7769 -73.8628 353° North 138 159 2,800 540 Climbing Boston Center
02:43PM 42.8144 -73.8667 356° North 139 160 3,300 540 Climbing Boston Center
02:44PM 42.8542 -73.8703 356° North 135 155 4,000 540 Climbing Boston Center
02:45PM 42.8917 -73.8739 356° North 131 151 4,500 360 Climbing Boston Center
02:46PM 42.9289 -73.8864 346° North 137 158 4,800 360 Climbing Boston Center
02:47PM 42.9706 -73.8958 351° North 149 171 5,300 480 Climbing Boston Center
02:48PM 43.0122 -73.8997 356° North 146 168 5,800 480 Climbing Boston Center
02:49PM 43.0539 -73.9006 359° North 144 166 6,400 480 Climbing Boston Center
02:50PM 43.0808 -73.8983 North 143 165 6,700 420 Climbing Boston Center
02:51PM 43.1244 -73.9108 348° North 147 169 7,100 120 Climbing Boston Center
02:52PM 43.1661 -73.9147 356° North 168 193 7,000  Descending Boston Center
02:53PM 43.2119 -73.9242 351° North 177 204 7,100  Climbing Boston Center
02:54PM 43.2617 -73.9342 352° North 177 204 7,100 -60 Level Boston Center
02:55PM 43.3053 -73.9581 338° Northwest 177 204 7,000  Descending Boston Center
02:56PM 43.3486 -73.9819 338° Northwest 170 196 7,100  Climbing Boston Center
02:57PM 43.3942 -74.0058 339° North 170 196 7,100 -60 Level Boston Center
02:58PM 43.4375 -74.0297 338° Northwest 170 196 7,000 -60 Descending Boston Center
02:59PM 43.4769 -74.0508 339° North 165 190 7,000  Level Boston Center
03:00PM 43.5183 -74.0750 337° Northwest 165 190 7,100  Climbing Boston Center
03:01PM 43.5575 -74.0931 342° North 159 183 7,100  Level Boston Center
03:02PM 43.5906 -74.1114 338° Northwest 152 175 7,100  Level Boston Center
03:03PM 43.6300 -74.1325 339° North 152 175 7,100  Level Boston Center
03:04PM 43.6692 -74.1536 339° North 152 175 7,100 -60 Level Boston Center
03:05PM 43.7086 -74.1750 339° North 152 175 7,000 -60 Descending Boston Center
03:06PM 43.7500 -74.1961 340° North 152 175 7,000  Level Boston Center
03:07PM 43.7911 -74.2175 339° North 152 175 7,000  Level Boston Center
03:08PM 43.8283 -74.2389 337° Northwest 152 175 7,000  Level Boston Center
03:09PM 43.8678 -74.2600 339° North 152 175 7,100  Climbing Boston Center
03:10PM 43.9047 -74.2814 337° Northwest 152 175 7,000 -60 Descending Boston Center
03:11PM 43.9442 -74.2969 344° North 152 175 7,000  Level Boston Center
03:12PM 43.9814 -74.3214 335° Northwest 152 175 7,000  Level Boston Center
03:13PM 44.0225 -74.3456 337° Northwest 152 175 7,000  Level Boston Center
03:14PM 44.0619 -74.3642 341° North 152 175 7,000  Level Boston Center
03:15PM 44.1114 -74.3919 338° Northwest 152 175 7,000  Level Boston Center
03:16PM 44.1569 -74.4164 339° North 157 181 7,100  Climbing Boston Center
03:17PM 44.2044 -74.4414 339° North 167 192 7,000 -60 Descending Boston Center
03:18PM 44.2456 -74.4658 337° Northwest 167 192 7,000 -180 Level Boston Center
03:19PM 44.2869 -74.4875 339° North 167 192 6,700 -300 Descending Boston Center
03:20PM 44.3322 -74.5094 341° North 172 198 6,400 -300 Descending Boston Center
03:21PM 44.3881 -74.5375 340° North 172 198 6,000 -240 Descending Boston Center
03:22PM 44.4356 -74.5683 335° Northwest 167 192 5,900  Descending Boston Center
03:23PM 44.4769 -74.5844 344° North 162 186 6,000  Climbing Boston Center
03:24PM 44.5181 -74.6033 342° North 157 181 5,900 -300 Descending Boston Center
03:25PM 44.5592 -74.6369 330° Northwest 152 175 5,500 -300 Descending Boston Center
03:26PM 44.6044 -74.6619 339° North 158 182 5,300 -180 Descending Boston Center
03:27PM 44.6500 -74.6869 339° North 164 189 5,200 -120 Descending Boston Center